createdAt,value
2023-03-05T00:01:56.128Z,97424.31
2023-03-05T00:04:23.714Z,97427.13
2023-03-05T00:06:50.963Z,97421.56
2023-03-05T00:09:18.124Z,97423.97
2023-03-05T00:11:45.277Z,97424.69
2023-03-05T00:14:12.675Z,97421.78
2023-03-05T00:16:40.080Z,97419.75
2023-03-05T00:19:07.531Z,97419.56
2023-03-05T00:21:38.545Z,97421.69
2023-03-05T00:24:13.880Z,97413.44
2023-03-05T00:26:41.313Z,97417.81
2023-03-05T00:29:09.648Z,97412.09
2023-03-05T00:31:38.234Z,97414.56
2023-03-05T00:34:09.223Z,97410.69
2023-03-05T00:36:40.758Z,97400.63
2023-03-05T00:39:08.011Z,97391.91
2023-03-05T00:41:35.167Z,97394.66
2023-03-05T00:44:02.371Z,97401.38
2023-03-05T00:46:29.723Z,97395.06
2023-03-05T00:48:57.610Z,97403.91
2023-03-05T00:51:25.820Z,97401.44
2023-03-05T00:53:53.196Z,97403.31
2023-03-05T00:56:20.525Z,97400.78
2023-03-05T00:58:47.735Z,97396.66
2023-03-05T01:01:14.940Z,97394.28
2023-03-05T01:03:42.166Z,97388.59
2023-03-05T01:06:12.047Z,97394.38
2023-03-05T01:08:39.599Z,97394.91
2023-03-05T01:11:07.643Z,97392.72
2023-03-05T01:13:35.141Z,97400.88
2023-03-05T01:16:04.095Z,97395.72
2023-03-05T01:18:31.381Z,97390.13
2023-03-05T01:20:58.477Z,97386.19
2023-03-05T01:23:25.759Z,97392.22
2023-03-05T01:25:58.000Z,97382.19
2023-03-05T01:28:25.860Z,97389.50
2023-03-05T01:30:53.365Z,97387.41
2023-03-05T01:33:20.685Z,97387.22
2023-03-05T01:35:49.079Z,97389.31
2023-03-05T01:38:16.867Z,97392.94
2023-03-05T01:40:44.693Z,97394.72
2023-03-05T01:43:12.094Z,97397.88
2023-03-05T01:46:00.236Z,97401.44
2023-03-05T01:48:27.914Z,97408.66
2023-03-05T01:50:55.111Z,97400.47
2023-03-05T01:53:22.284Z,97404.69
2023-03-05T01:55:49.928Z,97413.59
2023-03-05T01:58:18.050Z,97412.06
2023-03-05T02:00:48.592Z,97408.75
2023-03-05T02:03:16.579Z,97428.06
2023-03-05T02:05:44.650Z,97426.03
2023-03-05T02:08:17.523Z,97433.22
2023-03-05T02:10:51.027Z,97426.25
2023-03-05T02:13:23.647Z,97427.03
2023-03-05T02:15:53.036Z,97424.16
2023-03-05T02:18:21.288Z,97424.50
2023-03-05T02:20:55.728Z,97428.47
2023-03-05T02:23:29.160Z,97417.84
2023-03-05T02:25:56.756Z,97429.97
2023-03-05T02:28:37.654Z,97430.66
2023-03-05T02:31:16.142Z,97427.13
2023-03-05T02:33:44.157Z,97424.53
2023-03-05T02:36:12.349Z,97420.53
2023-03-05T02:38:40.804Z,97417.31
2023-03-05T02:41:09.457Z,97421.22
2023-03-05T02:43:37.215Z,97419.44
2023-03-05T02:46:05.094Z,97423.13
2023-03-05T02:48:32.754Z,97418.16
2023-03-05T02:51:01.662Z,97412.47
2023-03-05T02:53:28.869Z,97420.63
2023-03-05T02:55:56.672Z,97419.31
2023-03-05T02:58:23.859Z,97421.22
2023-03-05T03:00:51.348Z,97410.69
2023-03-05T03:03:18.716Z,97417.03
2023-03-05T03:05:45.914Z,97415.28
2023-03-05T03:08:12.995Z,97426.06
2023-03-05T03:10:40.056Z,97425.25
2023-03-05T03:13:07.182Z,97427.38
2023-03-05T03:15:34.962Z,97427.13
2023-03-05T03:18:02.012Z,97430.91
2023-03-05T03:20:29.045Z,97433.97
2023-03-05T03:22:56.170Z,97430.31
2023-03-05T03:25:23.509Z,97436.81
2023-03-05T03:27:52.583Z,97440.34
2023-03-05T03:30:19.700Z,97434.91
2023-03-05T03:32:48.129Z,97431.59
2023-03-05T03:35:15.228Z,97433.03
2023-03-05T03:37:42.400Z,97426.41
2023-03-05T03:40:11.356Z,97429.03
2023-03-05T03:42:38.470Z,97420.50
2023-03-05T03:45:06.041Z,97424.66
2023-03-05T03:47:33.197Z,97421.44
2023-03-05T03:50:00.306Z,97429.16
2023-03-05T03:52:27.641Z,97420.13
2023-03-05T03:55:01.442Z,97418.47
2023-03-05T03:57:30.250Z,97431.47
2023-03-05T03:59:57.406Z,97421.69
2023-03-05T04:02:24.667Z,97429.72
2023-03-05T04:04:52.584Z,97426.91
2023-03-05T04:07:20.096Z,97433.50
2023-03-05T04:09:47.259Z,97424.53
2023-03-05T04:12:18.278Z,97423.22
2023-03-05T04:14:47.066Z,97425.59
2023-03-05T04:17:14.411Z,97427.00
2023-03-05T04:19:42.696Z,97419.09
2023-03-05T04:22:12.773Z,97424.41
2023-03-05T04:24:40.043Z,97422.84
2023-03-05T04:27:07.469Z,97418.38
2023-03-05T04:29:35.344Z,97413.66
2023-03-05T04:32:02.590Z,97402.22
2023-03-05T04:34:29.802Z,97404.91
2023-03-05T04:36:57.424Z,97403.00
2023-03-05T04:39:25.121Z,97404.44
2023-03-05T04:41:52.379Z,97408.94
2023-03-05T04:44:19.506Z,97410.81
2023-03-05T04:46:46.583Z,97409.19
2023-03-05T04:49:13.696Z,97417.91
2023-03-05T04:51:40.786Z,97412.81
2023-03-05T04:54:08.736Z,97417.81
2023-03-05T04:56:35.946Z,97421.22
2023-03-05T04:59:03.104Z,97419.31
2023-03-05T05:01:30.277Z,97415.41
2023-03-05T05:03:57.348Z,97424.78
2023-03-05T05:06:24.477Z,97420.59
2023-03-05T05:08:51.520Z,97416.69
2023-03-05T05:11:18.653Z,97414.31
2023-03-05T05:13:45.898Z,97416.66
2023-03-05T05:16:13.205Z,97420.22
2023-03-05T05:18:40.296Z,97416.06
2023-03-05T05:21:09.577Z,97415.38
2023-03-05T05:23:36.980Z,97418.31
2023-03-05T05:26:05.979Z,97422.34
2023-03-05T05:28:33.633Z,97414.31
2023-03-05T05:31:01.036Z,97413.09
2023-03-05T05:33:28.091Z,97402.25
2023-03-05T05:35:55.209Z,97416.19
2023-03-05T05:38:22.261Z,97410.28
2023-03-05T05:40:49.307Z,97410.75
2023-03-05T05:43:16.365Z,97410.72
2023-03-05T05:45:43.794Z,97411.16
2023-03-05T05:48:11.007Z,97413.97
2023-03-05T05:50:39.433Z,97418.44
2023-03-05T05:53:06.499Z,97414.75
2023-03-05T05:55:33.616Z,97419.59
2023-03-05T05:58:00.681Z,97426.75
2023-03-05T06:00:27.814Z,97421.19
2023-03-05T06:02:55.013Z,97427.94
2023-03-05T06:05:22.287Z,97433.66
2023-03-05T06:07:49.295Z,97438.44
2023-03-05T06:10:16.419Z,97445.38
2023-03-05T06:12:43.693Z,97437.75
2023-03-05T06:15:11.020Z,97450.09
2023-03-05T06:17:38.550Z,97458.47
2023-03-05T06:20:07.116Z,97453.94
2023-03-05T06:22:39.140Z,97463.31
2023-03-05T06:25:10.036Z,97465.28
2023-03-05T06:27:37.933Z,97453.25
2023-03-05T06:30:06.592Z,97455.75
2023-03-05T06:32:33.921Z,97448.97
2023-03-05T06:35:01.009Z,97448.97
2023-03-05T06:37:28.186Z,97444.19
2023-03-05T06:39:55.291Z,97443.66
2023-03-05T06:42:22.515Z,97440.28
2023-03-05T06:44:49.576Z,97446.84
2023-03-05T06:47:16.683Z,97456.47
2023-03-05T06:49:43.789Z,97450.91
2023-03-05T06:52:12.941Z,97451.44
2023-03-05T06:54:40.536Z,97448.56
2023-03-05T06:57:07.611Z,97444.47
2023-03-05T06:59:34.706Z,97441.03
2023-03-05T07:02:01.756Z,97449.53
2023-03-05T07:04:28.882Z,97451.69
2023-03-05T07:06:56.092Z,97452.22
2023-03-05T07:09:23.242Z,97448.19
2023-03-05T07:11:50.330Z,97450.97
2023-03-05T07:14:17.472Z,97449.16
2023-03-05T07:16:44.528Z,97446.94
2023-03-05T07:19:11.699Z,97438.25
2023-03-05T07:21:40.056Z,97431.41
2023-03-05T07:24:09.057Z,97428.66
2023-03-05T07:26:36.583Z,97428.94
2023-03-05T07:29:04.210Z,97426.63
2023-03-05T07:31:32.225Z,97412.47
2023-03-05T07:34:01.871Z,97417.81
2023-03-05T07:36:30.930Z,97408.91
2023-03-05T07:38:58.120Z,97417.28
2023-03-05T07:41:25.444Z,97404.66
2023-03-05T07:43:54.468Z,97403.69
2023-03-05T07:46:25.673Z,97406.16
2023-03-05T07:48:54.725Z,97405.03
2023-03-05T07:51:23.567Z,97403.53
2023-03-05T07:53:52.251Z,97409.19
2023-03-05T07:56:31.900Z,97418.69
2023-03-05T07:59:00.778Z,97397.91
2023-03-05T08:01:29.106Z,97404.38
2023-03-05T08:03:56.499Z,97401.75
2023-03-05T08:06:23.869Z,97398.59
2023-03-05T08:08:51.022Z,97400.94
2023-03-05T08:11:18.214Z,97400.53
2023-03-05T08:13:45.797Z,97403.84
2023-03-05T08:16:15.953Z,97396.69
2023-03-05T08:18:44.132Z,97405.63
2023-03-05T08:21:22.301Z,97397.91
2023-03-05T08:23:50.140Z,97400.25
2023-03-05T08:26:20.777Z,97405.88
2023-03-05T08:28:47.967Z,97408.22
2023-03-05T08:31:17.018Z,97409.00
2023-03-05T08:33:44.216Z,97404.06
2023-03-05T08:36:11.341Z,97399.09
2023-03-05T08:38:38.416Z,97401.00
2023-03-05T08:41:06.277Z,97401.03
2023-03-05T08:43:33.626Z,97396.38
2023-03-05T08:46:02.193Z,97391.94
2023-03-05T08:48:29.988Z,97386.69
2023-03-05T08:50:57.106Z,97376.34
2023-03-05T08:53:24.377Z,97377.63
2023-03-05T08:55:55.780Z,97381.84
2023-03-05T08:58:23.090Z,97378.81
2023-03-05T09:00:50.430Z,97382.09
2023-03-05T09:03:18.077Z,97371.38
2023-03-05T09:05:45.257Z,97371.78
2023-03-05T09:08:12.881Z,97370.06
2023-03-05T09:10:42.804Z,97367.41
2023-03-05T09:13:10.693Z,97364.28
2023-03-05T09:15:38.599Z,97364.69
2023-03-05T09:18:05.959Z,97361.69
2023-03-05T09:20:34.054Z,97352.84
2023-03-05T09:23:01.278Z,97346.59
2023-03-05T09:25:28.421Z,97347.00
2023-03-05T09:27:55.583Z,97332.50
2023-03-05T09:30:22.856Z,97340.19
2023-03-05T09:32:51.272Z,97336.28
2023-03-05T09:35:18.503Z,97334.81
2023-03-05T09:37:45.591Z,97336.56
2023-03-05T09:40:17.238Z,97344.28
2023-03-05T09:43:06.040Z,97346.69
2023-03-05T10:18:05.945Z,97321.41
2023-03-05T10:20:38.949Z,97305.31
2023-03-05T10:23:08.767Z,97299.13
2023-03-05T10:25:47.952Z,97301.13
2023-03-05T10:28:36.479Z,97299.03
2023-03-05T10:31:18.745Z,97290.03
2023-03-05T10:33:59.429Z,97294.44
2023-03-05T10:36:41.771Z,97290.53
2023-03-05T10:39:40.516Z,97286.34
2023-03-05T10:42:21.716Z,97282.75
2023-03-05T10:44:54.976Z,97270.28
2023-03-05T10:47:24.243Z,97279.66
2023-03-05T10:49:54.653Z,97270.47
2023-03-05T10:52:35.436Z,97260.97
2023-03-05T10:55:13.286Z,97268.00
2023-03-05T10:57:40.456Z,97264.56
2023-03-05T11:00:13.814Z,97266.69
2023-03-05T11:02:58.044Z,97265.53
2023-03-05T11:05:47.626Z,97264.69
2023-03-05T11:08:35.586Z,97261.66
2023-03-05T11:11:20.854Z,97258.59
2023-03-05T11:13:55.958Z,97242.34
2023-03-05T11:16:25.044Z,97245.09
2023-03-05T11:19:17.665Z,97238.25
2023-03-05T11:21:46.691Z,97232.19
2023-03-05T11:24:19.422Z,97237.72
2023-03-05T11:26:47.465Z,97235.97
2023-03-05T11:29:23.890Z,97234.00
2023-03-05T11:31:51.953Z,97226.75
2023-03-05T11:34:18.964Z,97232.22
2023-03-05T11:36:55.733Z,97221.34
2023-03-05T11:39:25.311Z,97213.78
2023-03-05T11:41:54.229Z,97218.06
2023-03-05T11:44:28.891Z,97215.75
2023-03-05T11:47:17.503Z,97202.13
2023-03-05T11:49:48.010Z,97200.84
2023-03-05T11:52:32.316Z,97198.19
2023-03-05T11:55:19.816Z,97198.34
2023-03-05T11:57:50.683Z,97197.69
2023-03-05T12:00:24.936Z,97197.72
2023-03-05T12:02:56.589Z,97185.22
2023-03-05T12:05:23.840Z,97186.69
2023-03-05T12:07:55.553Z,97192.44
2023-03-05T12:10:25.718Z,97186.72
2023-03-05T12:13:23.825Z,97174.41
2023-03-05T12:16:09.912Z,97187.19
2023-03-05T12:18:55.178Z,97180.66
2023-03-05T12:21:37.128Z,97185.88
2023-03-05T12:24:27.344Z,97190.16
2023-03-05T12:27:04.214Z,97193.47
2023-03-05T12:29:31.469Z,97176.53
2023-03-05T12:32:01.961Z,97184.09
2023-03-05T12:34:40.959Z,97175.81
2023-03-05T12:37:34.882Z,97168.81
2023-03-05T12:40:12.822Z,97162.09
2023-03-05T12:42:46.032Z,97154.97
2023-03-05T12:45:14.553Z,97165.97
2023-03-05T12:47:45.210Z,97158.94
2023-03-05T12:50:27.185Z,97158.63
2023-03-05T12:52:59.861Z,97154.75
2023-03-05T12:55:47.717Z,97146.00
2023-03-05T12:58:40.265Z,97158.91
2023-03-05T13:01:25.936Z,97154.59
2023-03-05T13:04:05.289Z,97159.78
2023-03-05T13:06:35.698Z,97153.44
2023-03-05T13:09:14.918Z,97143.84
2023-03-05T13:11:45.454Z,97157.56
2023-03-05T13:14:30.565Z,97139.81
2023-03-05T13:16:58.314Z,97126.84
2023-03-05T13:19:25.474Z,97136.31
2023-03-05T13:22:00.751Z,97126.66
2023-03-05T13:24:29.375Z,97127.47
2023-03-05T13:26:56.981Z,97125.50
2023-03-05T13:29:30.900Z,97114.44
2023-03-05T13:32:01.907Z,97111.41
2023-03-05T13:34:41.100Z,97112.00
2023-03-05T13:37:22.505Z,97112.13
2023-03-05T13:40:00.231Z,97112.50
2023-03-05T13:42:34.749Z,97115.91
2023-03-05T13:45:20.536Z,97106.22
2023-03-05T13:47:55.191Z,97106.22
2023-03-05T13:50:31.514Z,97109.19
2023-03-05T13:53:19.471Z,97103.81
2023-03-05T13:55:48.460Z,97097.81
2023-03-05T13:58:40.874Z,97099.19
2023-03-05T14:02:08.436Z,97089.19
2023-03-05T14:04:54.410Z,97085.91
2023-03-05T14:07:34.687Z,97093.44
2023-03-05T14:10:03.307Z,97088.25
2023-03-05T14:12:36.178Z,97091.34
2023-03-05T14:15:16.901Z,97083.47
2023-03-05T14:17:44.188Z,97084.25
2023-03-05T14:20:14.243Z,97089.03
2023-03-05T14:22:48.654Z,97083.50
2023-03-05T14:25:39.798Z,97079.22
2023-03-05T14:28:25.429Z,97087.63
2023-03-05T14:30:55.992Z,97080.06
2023-03-05T14:33:28.733Z,97083.88
2023-03-05T14:35:57.961Z,97079.09
2023-03-05T14:38:30.033Z,97083.25
2023-03-05T14:40:57.657Z,97085.16
2023-03-05T14:43:24.834Z,97082.81
2023-03-05T14:45:51.962Z,97083.63
2023-03-05T14:48:19.258Z,97085.81
2023-03-05T14:50:53.209Z,97083.19
2023-03-05T14:53:25.001Z,97095.22
2023-03-05T14:55:57.748Z,97088.31
2023-03-05T14:58:27.717Z,97087.63
2023-03-05T15:00:55.706Z,97088.59
2023-03-05T15:03:25.770Z,97089.94
2023-03-05T15:05:55.711Z,97082.63
2023-03-05T15:08:28.225Z,97085.47
2023-03-05T15:10:56.241Z,97080.00
2023-03-05T15:13:23.426Z,97075.59
2023-03-05T15:15:52.675Z,97077.72
2023-03-05T15:18:21.984Z,97080.59
2023-03-05T15:20:52.088Z,97070.97
2023-03-05T15:23:19.972Z,97082.47
2023-03-05T15:25:47.449Z,97073.09
2023-03-05T15:28:15.076Z,97075.25
2023-03-05T15:30:46.405Z,97073.56
2023-03-05T15:33:16.808Z,97076.91
2023-03-05T15:35:44.332Z,97080.28
2023-03-05T15:38:11.685Z,97074.53
2023-03-05T15:40:38.737Z,97076.16
2023-03-05T15:43:05.982Z,97078.22
2023-03-05T15:45:33.818Z,97074.81
2023-03-05T15:48:01.180Z,97078.69
2023-03-05T15:50:28.294Z,97084.31
2023-03-05T15:52:55.361Z,97083.81
2023-03-05T15:55:22.466Z,97087.63
2023-03-05T15:57:51.336Z,97093.91
2023-03-05T16:00:26.157Z,97091.06
2023-03-05T16:02:53.590Z,97094.22
2023-03-05T16:05:20.737Z,97098.59
2023-03-05T16:07:51.882Z,97096.88
2023-03-05T16:10:22.963Z,97102.03
2023-03-05T16:12:54.328Z,97102.78
2023-03-05T16:15:22.514Z,97095.22
2023-03-05T16:17:54.610Z,97103.06
2023-03-05T16:20:22.455Z,97103.31
2023-03-05T16:22:49.934Z,97102.63
2023-03-05T16:25:17.860Z,97104.88
2023-03-05T16:27:45.367Z,97105.25
2023-03-05T16:30:15.499Z,97105.63
2023-03-05T16:32:43.064Z,97098.97
2023-03-05T16:35:12.493Z,97100.47
2023-03-05T16:37:40.471Z,97103.50
2023-03-05T16:40:10.342Z,97113.84
2023-03-05T16:42:37.732Z,97111.16
2023-03-05T16:45:06.736Z,97110.03
2023-03-05T16:47:34.011Z,97115.69
2023-03-05T16:50:01.196Z,97122.84
2023-03-05T16:52:28.796Z,97124.22
2023-03-05T16:54:56.182Z,97119.72
2023-03-05T16:57:25.745Z,97121.53
2023-03-05T16:59:54.319Z,97120.09
2023-03-05T17:02:21.692Z,97117.06
2023-03-05T17:04:50.497Z,97124.28
2023-03-05T17:07:18.358Z,97120.56
2023-03-05T17:09:47.978Z,97121.81
2023-03-05T17:12:15.159Z,97116.91
2023-03-05T17:14:42.251Z,97123.72
2023-03-05T17:17:09.424Z,97107.97
2023-03-05T17:19:37.120Z,97125.91
2023-03-05T17:22:05.277Z,97117.59
2023-03-05T17:24:33.688Z,97126.69
2023-03-05T17:27:01.410Z,97124.31
2023-03-05T17:29:29.546Z,97123.56
2023-03-05T17:31:56.759Z,97131.72
2023-03-05T17:34:35.648Z,97124.56
2023-03-05T17:37:04.669Z,97117.75
2023-03-05T17:39:31.759Z,97119.50
2023-03-05T17:41:58.936Z,97119.06
2023-03-05T17:44:26.097Z,97132.38
2023-03-05T17:46:53.532Z,97132.13
2023-03-05T17:49:20.834Z,97124.44
2023-03-05T17:51:48.042Z,97133.50
2023-03-05T17:54:15.245Z,97119.91
2023-03-05T17:56:42.512Z,97122.63
2023-03-05T17:59:10.060Z,97117.81
2023-03-05T18:01:37.330Z,97124.19
2023-03-05T18:04:04.786Z,97124.28
2023-03-05T18:06:32.923Z,97124.16
2023-03-05T18:09:00.013Z,97132.38
2023-03-05T18:11:27.761Z,97125.81
2023-03-05T18:13:54.959Z,97133.91
2023-03-05T18:16:23.684Z,97126.34
2023-03-05T18:18:51.792Z,97126.78
2023-03-05T18:21:24.064Z,97128.25
2023-03-05T18:23:51.751Z,97128.94
2023-03-05T18:26:18.824Z,97131.41
2023-03-05T18:28:46.041Z,97126.47
2023-03-05T18:31:13.319Z,97131.38
2023-03-05T18:33:40.879Z,97133.34
2023-03-05T18:36:10.876Z,97133.19
2023-03-05T18:38:38.688Z,97136.91
2023-03-05T18:41:06.713Z,97150.00
2023-03-05T18:43:34.395Z,97145.16
2023-03-05T18:46:05.056Z,97151.47
2023-03-05T18:48:32.340Z,97147.19
2023-03-05T18:51:01.984Z,97150.72
2023-03-05T18:53:29.351Z,97154.38
2023-03-05T18:55:56.510Z,97161.59
2023-03-05T18:58:25.918Z,97147.84
2023-03-05T19:00:53.427Z,97157.53
2023-03-05T19:03:22.591Z,97164.69
2023-03-05T19:05:51.417Z,97161.97
2023-03-05T19:08:18.636Z,97159.78
2023-03-05T19:10:45.864Z,97153.19
2023-03-05T19:13:40.137Z,97163.25
2023-03-05T19:16:13.309Z,97171.91
2023-03-05T19:19:09.227Z,97168.63
2023-03-05T19:21:47.998Z,97174.09
2023-03-05T19:24:16.160Z,97168.09
2023-03-05T19:26:44.189Z,97169.94
2023-03-05T19:29:12.147Z,97176.88
2023-03-05T19:31:39.777Z,97167.69
2023-03-05T19:34:07.004Z,97172.44
2023-03-05T19:36:35.736Z,97177.38
2023-03-05T19:39:04.977Z,97180.25
2023-03-05T19:41:32.309Z,97181.66
2023-03-05T19:43:59.534Z,97181.09
2023-03-05T19:46:26.752Z,97181.59
2023-03-05T19:48:53.884Z,97181.19
2023-03-05T19:51:23.872Z,97182.63
2023-03-05T19:53:51.804Z,97182.72
2023-03-05T19:56:19.707Z,97187.91
2023-03-05T19:58:49.162Z,97186.03
2023-03-05T20:01:22.298Z,97187.34
2023-03-05T20:03:51.649Z,97177.78
2023-03-05T20:06:19.684Z,97193.81
2023-03-05T20:08:46.861Z,97175.78
2023-03-05T20:11:15.983Z,97187.72
2023-03-05T20:13:43.800Z,97183.94
2023-03-05T20:16:19.513Z,97187.47
2023-03-05T20:18:47.369Z,97188.53
2023-03-05T20:21:21.663Z,97185.56
2023-03-05T20:23:50.629Z,97179.94
2023-03-05T20:26:18.723Z,97183.44
2023-03-05T20:28:46.250Z,97192.41
2023-03-05T20:31:13.369Z,97190.06
2023-03-05T20:33:40.481Z,97182.41
2023-03-05T20:36:08.761Z,97187.69
2023-03-05T20:38:35.808Z,97182.94
2023-03-05T20:41:15.189Z,97182.66
2023-03-05T20:43:45.049Z,97181.03
2023-03-05T20:46:21.993Z,97183.63
2023-03-05T20:48:51.198Z,97172.81
2023-03-05T20:51:24.738Z,97172.81
2023-03-05T20:53:54.419Z,97178.91
2023-03-05T20:56:21.631Z,97175.31
2023-03-05T20:58:48.679Z,97177.53
2023-03-05T21:01:15.774Z,97183.53
2023-03-05T21:03:42.918Z,97180.41
2023-03-05T21:06:10.027Z,97178.03
2023-03-05T21:08:37.099Z,97188.06
2023-03-05T21:11:09.459Z,97183.22
2023-03-05T21:13:37.395Z,97178.97
2023-03-05T21:16:25.388Z,97177.94
2023-03-05T21:18:52.830Z,97173.50
2023-03-05T21:21:20.061Z,97177.94
2023-03-05T21:23:47.439Z,97165.66
2023-03-05T21:26:15.264Z,97166.56
2023-03-05T21:28:42.923Z,97165.97
2023-03-05T21:31:20.212Z,97170.91
2023-03-05T21:33:47.586Z,97177.63
2023-03-05T21:36:18.860Z,97179.41
2023-03-05T21:38:50.218Z,97180.44
2023-03-05T21:41:18.354Z,97176.63
2023-03-05T21:43:45.564Z,97180.13
2023-03-05T21:46:14.349Z,97183.00
2023-03-05T21:48:41.444Z,97189.22
2023-03-05T21:51:38.474Z,97198.75
2023-03-05T21:54:18.976Z,97201.00
2023-03-05T21:56:46.795Z,97196.66
2023-03-05T21:59:14.035Z,97202.75
2023-03-05T22:01:41.142Z,97199.97
2023-03-05T22:04:08.267Z,97193.34
2023-03-05T22:06:35.554Z,97185.66
2023-03-05T22:09:02.673Z,97192.88
2023-03-05T22:11:29.755Z,97192.88
2023-03-05T22:13:57.159Z,97193.25
2023-03-05T22:16:26.035Z,97200.66
2023-03-05T22:18:53.626Z,97197.56
2023-03-05T22:21:23.937Z,97194.00
2023-03-05T22:23:51.103Z,97198.78
2023-03-05T22:26:18.196Z,97200.31
2023-03-05T22:28:45.446Z,97200.63
2023-03-05T22:31:21.088Z,97206.44
2023-03-05T22:33:48.585Z,97196.53
2023-03-05T22:36:16.329Z,97196.75
2023-03-05T22:38:43.576Z,97184.25
2023-03-05T22:41:12.667Z,97185.53
2023-03-05T22:43:40.560Z,97194.69
2023-03-05T22:46:14.997Z,97191.75
2023-03-05T22:48:42.354Z,97198.03
2023-03-05T22:51:11.466Z,97208.13
2023-03-05T22:53:39.603Z,97207.94
2023-03-05T22:56:12.832Z,97204.47
2023-03-05T22:58:40.413Z,97221.69
2023-03-05T23:01:14.305Z,97216.41
2023-03-05T23:04:02.347Z,97223.22
2023-03-05T23:06:40.201Z,97227.38
2023-03-05T23:09:07.349Z,97220.88
2023-03-05T23:11:34.632Z,97221.09
2023-03-05T23:14:01.770Z,97225.44
2023-03-05T23:16:28.859Z,97223.69
2023-03-05T23:18:56.275Z,97227.38
2023-03-05T23:21:23.322Z,97230.19
2023-03-05T23:23:50.577Z,97227.66
2023-03-05T23:26:17.690Z,97226.03
2023-03-05T23:28:44.775Z,97224.72
2023-03-05T23:31:11.984Z,97221.25
2023-03-05T23:33:39.181Z,97227.53
2023-03-05T23:36:06.525Z,97223.56
2023-03-05T23:38:33.785Z,97221.78
2023-03-05T23:41:02.959Z,97219.66
2023-03-05T23:43:30.817Z,97226.91
2023-03-05T23:45:58.125Z,97223.56
2023-03-05T23:48:26.769Z,97221.53
2023-03-05T23:50:54.871Z,97227.22
2023-03-05T23:53:24.831Z,97217.44
2023-03-05T23:55:52.594Z,97215.09
2023-03-05T23:58:20.684Z,97227.22
